x

Northwestern Hawaii Two - 190nm Nw Of Kauai Is, Hi (51101) Wave Buoy

1:50pm - Fri 30th Jan 2015 All times are HST. -10 hours from GMT.

  • Sig Wave height 12.1ft
  • Swell Direction
  • Peak Period 13s
  • Average Period 9s
  • Wind
    13mph, 18mph gusts
  • Sea Temp 72°f
  • Air Temp 67°f
  • Sea Pressure 1013.9mb
  • Northwestern Hawaii Two - 190nm Nw Of Kauai Is, Hi
  • Northwestern Hawaii Two - 190nm Nw Of Kauai Is, Hi

More Historic Weather Station data

Upgrade to MSW Pro to gain access to the past 30 days of data for over 8000 Wavebouys and Weather Stations around the globe.

Join Pro

Comparision Forecast

View Surf forecast
   
Fri 01/30 1:50pm 12ft 13s 9s 13 18 mph 1013.9mb 72f 67f
12:50pm 12ft 12s 9s 13 16 mph 1014.6mb 72f 67f
11:50am 13ft 12s 9s 11 16 mph 1015.1mb 72f 66f
10:50am 12ft 12s 9s 11 18 mph 1015.1mb 72f 66f
9:50am 11ft 13s 8s 16 20 mph 1014.6mb 72f 66f
8:50am 12ft 12s 9s 13 20 mph 1014.4mb 72f 66f
7:50am 13ft 12s 9s 16 22 mph 1013.7mb 72f 65f
6:50am 12ft 11s 8s 16 22 mph 1013.3mb 72f 65f
5:50am 13ft 12s 8s 18 25 mph 1012.4mb 72f 65f
4:50am 12ft 12s 8s 18 22 mph 1012.1mb 72f 65f
3:50am 12ft 11s 8s 18 25 mph 1012.1mb 72f 65f
2:50am 13ft 11s 8s 18 22 mph 1012.3mb 72f 65f
1:50am 13ft 11s 8s 18 25 mph 1012.8mb 72f 65f
12:50am 13ft 12s 8s 22 27 mph 1013mb 72f 65f
Thu 01/29 11:50pm 13ft 12s 8s 20 25 mph 1013.5mb 72f 65f
10:50pm 12.5ft 11s 8s 20 25 mph 1013.4mb 72f 65f
9:50pm 13ft 11s 7s 20 25 mph 1013.2mb 72f 65f
8:50pm 12.5ft 11s 7s 25 29 mph 1012.7mb 72f 64f
7:50pm 11ft 11s 7s 25 29 mph 1011.9mb 72f 64f
6:50pm 11ft 12s 7s 29 38 mph 1010.8mb 72f 64f
5:50pm 10ft 11s 6s 29 36 mph 1010mb 72f 66f
4:50pm 8.5ft 13s 6s 27 36 mph 1009.3mb 72f 70f
3:50pm 9ft 13s 6s 27 31 mph 1008.6mb 73f 71f
2:50pm 8ft 11s 6s 27 31 mph 1008.6mb 73f 71f
1:50pm 8ft 13s 7s 27 34 mph 1009.1mb 73f 71f
12:50pm 8.5ft 14s 7s 22 27 mph 1010.7mb 73f 71f
11:50am 8ft 13s  -  25 29 mph 1011.5mb 73f 71f
10:50am 7ft 13s 8s 18 22 mph 1012.3mb 73f 71f
9:50am 7.5ft 13s 8s 16 18 mph 1013mb 73f 70f
8:50am 7ft 13s 8s 13 18 mph 1013.4mb 73f 69f
7:50am 8ft 13s 8s 16 20 mph 1013.3mb 73f 69f
6:50am 7ft 13s 8s 16 20 mph 1012.9mb 73f 69f
5:50am 8ft 13s 8s 16 18 mph 1013.1mb 73f 69f
4:50am 8ft 13s 8s 18 20 mph 1013.2mb 73f 69f
3:50am 7.5ft 14s 8s 18 22 mph 1013.3mb 73f 69f
2:50am 8ft 13s 8s 16 20 mph 1013.5mb 73f 69f
1:50am 8ft 14s 8s 16 18 mph 1013.5mb 73f 69f
12:50am 9ft 14s 8s 16 20 mph 1014mb 73f 69f
Wed 01/28 11:50pm 8ft 14s 8s 13 18 mph 1014.3mb 73f 69f
10:50pm 8ft 15s 8s 16 18 mph 1014.5mb 73f 69f
9:50pm 8ft 14s 8s 16 20 mph 1014.6mb 73f 69f
8:50pm 8ft 15s 8s 16 18 mph 1014mb 73f 69f
7:50pm 8ft 15s 9s 16 20 mph 1013.6mb 73f 68f
6:50pm 8ft 12s 9s 13 18 mph 1013.3mb 73f 69f
5:50pm 8ft 15s 10s 9 13 mph 1013.1mb 73f 70f
4:50pm 8ft 15s 10s 9 13 mph 1013.1mb 73f 70f
3:50pm 8.5ft 13s 10s 11 13 mph 1013mb 73f 70f
2:50pm 9ft 14s 10s 11 13 mph 1013.3mb 73f 70f
1:50pm 9ft 15s 10s 11 16 mph 1014.1mb 73f 70f
12:50pm 8.5ft 15s 10s 11 13 mph 1015mb 73f 70f
11:50am 9ft 15s 11s 11 13 mph 1015.6mb 73f 70f
10:50am 8.5ft 16s 10s 11 13 mph 1016.1mb 73f 70f
9:50am 8ft 15s 10s 9 11 mph 1016.1mb 73f 70f
8:50am 8ft 15s 10s 11 16 mph 1015.5mb 73f 70f
7:50am 7.5ft 15s 10s 9 11 mph 1015mb 73f 69f
6:50am 8ft 16s 11s 9 11 mph 1014.7mb 73f 69f
5:50am 7ft 15s 9s 9
mph
1014.3mb 73f 69f
4:50am 8.5ft 16s 10s 11 13 mph 1014.2mb 73f 69f
3:50am 7ft 16s 10s 13 16 mph 1014.1mb 73f 68f
2:50am 7.5ft 16s 10s 11 13 mph 1014.5mb 73f 69f
1:50am 8ft 16s 10s 7 11 mph 1014.6mb 73f 70f
12:50am 9ft 17s 10s 7 9 mph 1015mb 73f 70f
Tue 01/27 11:50pm 8.5ft 16s 10s 11 13 mph 1015.3mb 73f 70f
10:50pm 9ft 16s 10s 11 13 mph 1015.4mb 73f 70f
9:50pm 8.5ft 16s 10s 9 11 mph 1015.5mb 73f 69f
8:50pm 8ft 17s 9s 11 16 mph 1015mb 73f 69f
7:50pm 7ft 16s 8s 9 11 mph 1014.7mb 73f 70f
6:50pm 9ft 17s 10s 9 11 mph 1014.3mb 73f 69f
5:50pm 8.5ft 17s 10s 11 13 mph 1014.1mb 73f 69f
4:50pm 7.5ft 17s 9s 9 13 mph 1014mb 73f 69f
3:50pm 7ft 17s 9s 9 11 mph 1014.1mb 73f 68f
2:50pm 7ft 17s 9s 7 9 mph 1014.1mb 73f 68f
1:50pm 7ft 17s 8s 4 9 mph 1015mb 73f 66f
12:50pm 8.5ft 17s 10s 9 11 mph 1015.7mb 73f 69f
11:50am 8ft 17s 9s 9 11 mph 1016.5mb 72f 69f
10:50am 8ft 17s 9s 9 11 mph 1017.1mb 72f 69f
9:50am 8ft 19s 9s 13 18 mph 1016.9mb 72f 69f
8:50am 7ft 17s 8s 18 22 mph 1016.6mb 72f 68f
7:50am 7ft 19s 8s 13 18 mph 1016.2mb 72f 69f
6:50am 7ft 19s 8s 13 16 mph 1015.7mb 72f 70f
5:50am 7.5ft 19s 9s 9 11 mph 1015.5mb 72f 69f
4:50am 7ft 19s 8s 13 16 mph 1015.5mb 72f 68f
3:50am 6.5ft 19s 8s 13 16 mph 1015.6mb 72f 69f
2:50am 6.5ft 21s 8s 13 18 mph 1015.7mb 72f 69f
1:50am 6ft 11s 7s 13 18 mph 1016.2mb 72f 69f